createdAt,value
2023-02-11T00:01:16.658Z,62.50
2023-02-11T00:04:19.595Z,64.46
2023-02-11T00:07:22.545Z,63.85
2023-02-11T00:10:25.440Z,66.22
2023-02-11T00:13:28.465Z,64.90
2023-02-11T00:16:32.574Z,64.03
2023-02-11T00:19:35.540Z,64.63
2023-02-11T00:22:38.493Z,64.94
2023-02-11T00:25:43.270Z,63.96
2023-02-11T00:28:47.265Z,63.18
2023-02-11T00:31:51.913Z,63.13
2023-02-11T00:34:55.472Z,62.78
2023-02-11T00:38:01.350Z,63.39
2023-02-11T00:41:05.075Z,63.51
2023-02-11T00:44:07.926Z,63.39
2023-02-11T00:47:10.746Z,62.79
2023-02-11T00:50:13.878Z,62.32
2023-02-11T00:53:16.801Z,63.65
2023-02-11T00:56:20.562Z,63.69
2023-02-11T00:59:23.469Z,62.83
2023-02-11T01:02:26.438Z,61.69
2023-02-11T01:05:35.619Z,62.11
2023-02-11T01:08:39.918Z,61.76
2023-02-11T01:11:44.525Z,62.89
2023-02-11T01:14:47.803Z,62.36
2023-02-11T01:17:51.067Z,63.41
2023-02-11T01:20:55.983Z,63.48
2023-02-11T01:23:59.394Z,62.53
2023-02-11T01:27:02.278Z,63.15
2023-02-11T01:30:07.042Z,62.77
2023-02-11T01:33:09.967Z,61.33
2023-02-11T01:36:13.419Z,60.65
2023-02-11T01:39:16.772Z,61.85
2023-02-11T01:42:24.212Z,62.75
2023-02-11T01:45:46.272Z,60.39
2023-02-11T01:48:55.481Z,62.23
2023-02-11T01:52:13.408Z,63.00
2023-02-11T01:55:35.850Z,63.10
2023-02-11T01:58:42.382Z,62.82
2023-02-11T02:01:56.290Z,63.94
2023-02-11T02:05:28.816Z,63.88
2023-02-11T02:08:38.982Z,64.89
2023-02-11T02:11:44.908Z,64.19
2023-02-11T02:14:47.751Z,63.54
2023-02-11T02:18:01.726Z,63.66
2023-02-11T02:21:36.498Z,63.38
2023-02-11T02:25:01.204Z,63.37
2023-02-11T02:28:44.546Z,63.68
2023-02-11T02:31:55.154Z,64.55
2023-02-11T02:35:26.803Z,65.23
2023-02-11T02:38:38.778Z,65.22
2023-02-11T02:41:42.846Z,65.20
2023-02-11T02:44:53.532Z,66.03
2023-02-11T02:47:56.727Z,65.76
2023-02-11T02:51:32.998Z,66.13
2023-02-11T02:54:54.329Z,68.11
2023-02-11T02:58:17.449Z,68.95
2023-02-11T03:01:26.558Z,69.15
2023-02-11T03:04:45.169Z,69.63
2023-02-11T03:07:56.067Z,70.35
2023-02-11T03:11:01.643Z,70.80
2023-02-11T03:14:11.327Z,70.47
2023-02-11T03:17:15.439Z,69.08
2023-02-11T03:20:22.065Z,70.08
2023-02-11T03:23:37.853Z,70.54
2023-02-11T03:26:46.778Z,69.74
2023-02-11T03:30:18.778Z,70.58
2023-02-11T03:33:30.691Z,71.00
2023-02-11T03:36:46.234Z,71.01
2023-02-11T03:39:56.233Z,70.38
2023-02-11T03:43:23.224Z,69.75
2023-02-11T03:46:38.202Z,70.00
2023-02-11T03:49:45.140Z,66.22
2023-02-11T03:52:50.020Z,66.02
2023-02-11T03:55:55.391Z,64.84
2023-02-11T03:58:58.410Z,64.85
2023-02-11T04:02:01.304Z,63.65
2023-02-11T04:05:06.777Z,63.37
2023-02-11T04:08:09.817Z,63.81
2023-02-11T04:11:12.894Z,63.41
2023-02-11T04:14:16.227Z,63.25
2023-02-11T04:17:19.294Z,63.34
2023-02-11T04:20:22.174Z,62.80
2023-02-11T04:23:25.013Z,62.25
2023-02-11T04:26:27.966Z,62.43
2023-02-11T04:29:32.132Z,62.26
2023-02-11T04:32:38.356Z,63.32
2023-02-11T04:35:41.551Z,63.60
2023-02-11T04:38:44.501Z,66.20
2023-02-11T04:41:47.418Z,66.98
2023-02-11T04:44:50.379Z,66.21
2023-02-11T04:47:53.264Z,63.92
2023-02-11T04:50:56.326Z,65.10
2023-02-11T04:53:59.390Z,65.59
2023-02-11T04:57:05.633Z,67.83
2023-02-11T05:00:10.085Z,69.89
2023-02-11T05:03:13.488Z,73.11
2023-02-11T05:06:16.258Z,71.17
2023-02-11T05:09:19.241Z,71.81
2023-02-11T05:12:22.158Z,69.58
2023-02-11T05:15:25.045Z,66.52
2023-02-11T05:18:28.228Z,68.82
2023-02-11T05:21:31.384Z,67.38
2023-02-11T05:24:34.647Z,67.87
2023-02-11T05:27:37.742Z,67.23
2023-02-11T05:30:40.866Z,64.50
2023-02-11T05:33:43.951Z,63.34
2023-02-11T05:36:46.885Z,63.05
2023-02-11T05:39:49.925Z,61.89
2023-02-11T05:42:52.886Z,62.50
2023-02-11T05:45:55.812Z,62.60
2023-02-11T05:48:58.974Z,62.87
2023-02-11T05:52:01.914Z,63.76
2023-02-11T05:55:05.251Z,64.77
2023-02-11T05:58:10.975Z,64.12
2023-02-11T06:01:13.970Z,65.08
2023-02-11T06:04:16.910Z,65.17
2023-02-11T06:07:19.982Z,65.47
2023-02-11T06:10:22.869Z,65.62
2023-02-11T06:13:25.782Z,65.91
2023-02-11T06:16:28.807Z,65.30
2023-02-11T06:19:31.875Z,65.72
2023-02-11T06:22:35.122Z,62.07
2023-02-11T06:25:38.081Z,61.81
2023-02-11T06:28:42.067Z,60.38
2023-02-11T06:31:45.250Z,62.69
2023-02-11T06:34:48.350Z,61.33
2023-02-11T06:37:53.958Z,60.38
2023-02-11T06:40:57.129Z,60.40
2023-02-11T06:43:59.992Z,60.77
2023-02-11T06:47:02.930Z,59.67
2023-02-11T06:50:08.120Z,59.92
2023-02-11T06:53:11.033Z,61.09
2023-02-11T06:56:20.281Z,61.33
2023-02-11T06:59:23.239Z,61.37
2023-02-11T07:02:26.403Z,62.34
2023-02-11T07:05:29.701Z,59.73
2023-02-11T07:08:37.220Z,61.00
2023-02-11T07:11:40.051Z,60.01
2023-02-11T07:14:43.238Z,60.36
2023-02-11T07:17:46.163Z,60.44
2023-02-11T07:20:49.041Z,61.55
2023-02-11T07:23:52.198Z,61.30
2023-02-11T07:26:55.160Z,60.48
2023-02-11T07:29:58.066Z,59.31
2023-02-11T07:33:01.027Z,59.72
2023-02-11T07:36:05.305Z,59.77
2023-02-11T07:39:11.024Z,59.98
2023-02-11T07:42:14.183Z,60.44
2023-02-11T07:45:18.278Z,62.65
2023-02-11T07:48:21.308Z,61.62
2023-02-11T07:51:27.673Z,62.04
2023-02-11T07:54:30.946Z,61.48
2023-02-11T07:57:33.931Z,61.94
2023-02-11T08:00:37.226Z,60.93
2023-02-11T08:03:42.909Z,60.09
2023-02-11T08:06:46.026Z,60.21
2023-02-11T08:09:49.143Z,60.13
2023-02-11T08:12:52.157Z,60.12
2023-02-11T08:15:57.838Z,58.00
2023-02-11T08:19:04.673Z,58.02
2023-02-11T08:22:07.803Z,59.10
2023-02-11T08:25:13.215Z,55.77
2023-02-11T08:28:16.061Z,54.56
2023-02-11T08:31:28.225Z,53.82
2023-02-11T08:34:31.268Z,54.00
2023-02-11T08:37:34.667Z,54.33
2023-02-11T08:40:37.570Z,54.94
2023-02-11T08:43:44.450Z,53.77
2023-02-11T08:46:47.819Z,55.66
2023-02-11T08:49:50.734Z,55.92
2023-02-11T08:52:53.630Z,55.75
2023-02-11T08:55:56.697Z,56.35
2023-02-11T08:58:59.722Z,58.39
2023-02-11T09:02:04.991Z,59.27
2023-02-11T09:05:09.215Z,58.45
2023-02-11T09:08:12.444Z,57.77
2023-02-11T09:11:17.201Z,57.28
2023-02-11T09:14:22.565Z,55.91
2023-02-11T09:17:25.678Z,55.03
2023-02-11T09:20:28.788Z,52.72
2023-02-11T09:23:34.491Z,51.59
2023-02-11T09:26:38.324Z,50.91
2023-02-11T09:29:41.149Z,43.67
2023-02-11T09:32:44.269Z,39.61
2023-02-11T09:35:47.498Z,41.97
2023-02-11T09:38:50.897Z,45.10
2023-02-11T09:42:03.274Z,39.16
2023-02-11T09:45:15.958Z,37.70
2023-02-11T09:48:21.999Z,38.94
2023-02-11T09:51:53.874Z,43.59
2023-02-11T09:55:02.758Z,44.23
2023-02-11T09:58:16.408Z,42.69
2023-02-11T10:02:00.778Z,42.96
2023-02-11T10:05:06.472Z,41.13
2023-02-11T10:08:20.180Z,40.09
2023-02-11T10:11:41.041Z,39.38
2023-02-11T10:15:15.900Z,37.45
2023-02-11T10:19:05.389Z,35.56
2023-02-11T10:22:25.718Z,38.56
2023-02-11T10:25:35.410Z,39.15
2023-02-11T10:28:40.555Z,39.56
2023-02-11T10:31:46.434Z,40.74
2023-02-11T10:35:00.031Z,41.44
2023-02-11T10:38:03.559Z,41.77
2023-02-11T10:41:07.375Z,41.39
2023-02-11T10:44:33.703Z,42.25
2023-02-11T10:47:39.268Z,41.93
2023-02-11T10:50:42.483Z,40.28
2023-02-11T10:53:47.542Z,38.67
2023-02-11T10:56:58.774Z,37.18
2023-02-11T11:00:25.920Z,35.93
2023-02-11T11:03:40.306Z,36.65
2023-02-11T11:06:47.010Z,37.25
2023-02-11T11:09:55.645Z,36.49
2023-02-11T11:12:58.645Z,36.58
2023-02-11T11:16:22.231Z,37.07
2023-02-11T11:19:25.886Z,35.13
2023-02-11T11:22:29.237Z,32.73
2023-02-11T11:25:32.303Z,33.80
2023-02-11T11:28:47.059Z,31.82
2023-02-11T11:32:04.463Z,32.71
2023-02-11T11:35:23.534Z,32.57
2023-02-11T11:38:29.451Z,33.50
2023-02-11T11:41:34.664Z,32.82
2023-02-11T11:44:39.915Z,32.91
2023-02-11T11:48:20.922Z,32.92
2023-02-11T11:51:28.434Z,35.53
2023-02-11T11:54:32.088Z,37.23
2023-02-11T11:57:38.600Z,38.54
2023-02-11T12:01:15.840Z,39.40
2023-02-11T12:04:27.984Z,40.69
2023-02-11T12:07:44.039Z,40.03
2023-02-11T12:10:46.813Z,38.79
2023-02-11T12:14:04.689Z,38.61
2023-02-11T12:17:16.845Z,37.86
2023-02-11T12:20:26.338Z,39.10
2023-02-11T12:23:58.039Z,39.74
2023-02-11T12:27:10.938Z,40.54
2023-02-11T12:30:28.765Z,40.97
2023-02-11T12:34:04.902Z,42.02
2023-02-11T12:37:32.879Z,42.64
2023-02-11T12:40:55.472Z,42.87
2023-02-11T12:43:59.273Z,43.45
2023-02-11T12:47:25.082Z,44.04
2023-02-11T12:51:14.520Z,42.43
2023-02-11T12:54:54.484Z,43.61
2023-02-11T12:58:01.916Z,41.52
2023-02-11T13:01:18.789Z,41.96
2023-02-11T13:04:37.696Z,42.10
2023-02-11T13:07:45.950Z,41.84
2023-02-11T13:10:59.819Z,42.92
2023-02-11T13:14:41.306Z,43.55
2023-02-11T13:17:58.413Z,43.29
2023-02-11T13:21:16.960Z,43.34
2023-02-11T13:24:26.553Z,42.76
2023-02-11T13:27:51.356Z,42.91
2023-02-11T13:31:05.016Z,43.09
2023-02-11T13:34:47.988Z,43.13
2023-02-11T13:37:51.336Z,43.55
2023-02-11T13:41:06.187Z,43.23
2023-02-11T13:44:09.127Z,43.19
2023-02-11T13:47:30.439Z,44.22
2023-02-11T13:50:39.758Z,44.57
2023-02-11T13:53:56.975Z,44.57
2023-02-11T13:57:23.439Z,44.99
2023-02-11T14:00:35.556Z,44.21
2023-02-11T14:04:18.289Z,44.14
2023-02-11T14:07:51.570Z,43.74
2023-02-11T14:11:00.828Z,43.54
2023-02-11T14:14:21.967Z,43.93
2023-02-11T14:17:31.580Z,44.05
2023-02-11T14:20:45.450Z,44.22
2023-02-11T14:23:51.503Z,43.83
2023-02-11T14:27:01.661Z,44.20
2023-02-11T14:30:26.481Z,44.30
2023-02-11T14:33:44.168Z,44.22
2023-02-11T14:36:53.019Z,44.54
2023-02-11T14:40:16.006Z,44.17
2023-02-11T14:43:24.561Z,44.25
2023-02-11T14:46:33.016Z,44.28
2023-02-11T14:49:39.890Z,43.93
2023-02-11T14:52:44.426Z,43.85
2023-02-11T14:55:52.589Z,44.19
2023-02-11T14:58:55.917Z,44.25
2023-02-11T15:01:59.440Z,44.03
2023-02-11T15:05:28.096Z,45.37
2023-02-11T15:08:33.658Z,44.45
2023-02-11T15:11:42.703Z,44.42
2023-02-11T15:14:53.141Z,44.25
2023-02-11T15:17:59.621Z,43.63
2023-02-11T15:21:03.138Z,44.01
2023-02-11T15:24:23.949Z,44.65
2023-02-11T15:27:26.920Z,44.16
2023-02-11T15:30:34.210Z,43.83
2023-02-11T15:33:37.280Z,44.07
2023-02-11T15:36:40.529Z,42.93
2023-02-11T15:39:45.958Z,43.81
2023-02-11T15:42:58.089Z,43.33
2023-02-11T15:46:02.110Z,44.16
2023-02-11T15:49:06.574Z,43.80
2023-02-11T15:52:09.639Z,44.09
2023-02-11T15:55:15.999Z,43.88
2023-02-11T15:58:20.017Z,45.40
2023-02-11T16:01:35.746Z,44.90
2023-02-11T16:04:39.148Z,45.70
2023-02-11T16:07:47.817Z,45.12
2023-02-11T16:11:02.626Z,45.24
2023-02-11T16:14:21.292Z,45.21
2023-02-11T16:17:30.439Z,45.49
2023-02-11T16:20:34.313Z,45.59
2023-02-11T16:23:42.103Z,45.75
2023-02-11T16:26:49.728Z,44.85
2023-02-11T16:29:53.342Z,45.22
2023-02-11T16:32:57.309Z,44.63
2023-02-11T16:36:02.245Z,44.75
2023-02-11T16:39:06.064Z,44.39
2023-02-11T16:42:11.601Z,44.14
2023-02-11T16:45:15.621Z,45.04
2023-02-11T16:48:20.163Z,44.38
2023-02-11T16:51:23.595Z,45.26
2023-02-11T16:54:27.753Z,45.64
2023-02-11T16:57:31.209Z,45.47
2023-02-11T17:00:34.512Z,45.44
2023-02-11T17:03:40.634Z,45.77
2023-02-11T17:06:44.665Z,45.98
2023-02-11T17:09:47.864Z,46.04
2023-02-11T17:12:51.189Z,46.08
2023-02-11T17:15:54.734Z,46.85
2023-02-11T17:18:58.501Z,47.54
2023-02-11T17:22:01.813Z,47.08
2023-02-11T17:25:04.949Z,46.75
2023-02-11T17:28:09.785Z,46.94
2023-02-11T17:31:13.331Z,45.60
2023-02-11T17:34:17.419Z,45.20
2023-02-11T17:37:21.154Z,45.45
2023-02-11T17:40:24.443Z,45.37
2023-02-11T17:43:28.391Z,45.82
2023-02-11T17:46:34.743Z,44.73
2023-02-11T17:49:38.464Z,45.49
2023-02-11T17:52:41.804Z,45.89
2023-02-11T17:55:44.934Z,45.83
2023-02-11T17:58:48.331Z,46.20
2023-02-11T18:01:51.522Z,45.93
2023-02-11T18:04:58.917Z,45.14
2023-02-11T18:08:02.816Z,46.47
2023-02-11T18:11:10.113Z,46.02
2023-02-11T18:14:13.414Z,45.95
2023-02-11T18:17:17.045Z,45.14
2023-02-11T18:20:20.390Z,45.37
2023-02-11T18:23:23.544Z,44.41
2023-02-11T18:26:28.166Z,44.95
2023-02-11T18:29:31.516Z,44.91
2023-02-11T18:32:37.231Z,44.91
2023-02-11T18:35:43.801Z,45.41
2023-02-11T18:38:47.203Z,45.58
2023-02-11T18:41:54.547Z,46.20
2023-02-11T18:44:59.806Z,45.83
2023-02-11T18:48:05.390Z,46.62
2023-02-11T18:51:15.939Z,45.69
2023-02-11T18:54:19.026Z,45.58
2023-02-11T18:57:22.328Z,46.07
2023-02-11T19:00:25.583Z,46.62
2023-02-11T19:03:28.532Z,48.02
2023-02-11T19:06:35.561Z,47.14
2023-02-11T19:09:41.417Z,47.03
2023-02-11T19:12:44.719Z,47.74
2023-02-11T19:15:47.990Z,47.70
2023-02-11T19:18:51.270Z,48.72
2023-02-11T19:21:56.019Z,48.30
2023-02-11T19:24:59.154Z,47.75
2023-02-11T19:28:03.403Z,47.73
2023-02-11T19:31:10.000Z,47.75
2023-02-11T19:34:16.048Z,46.82
2023-02-11T19:37:19.659Z,46.95
2023-02-11T19:40:25.710Z,47.99
2023-02-11T19:43:29.172Z,47.43
2023-02-11T19:46:37.610Z,46.97
2023-02-11T19:49:40.882Z,47.54
2023-02-11T19:52:44.731Z,46.60
2023-02-11T19:55:48.902Z,46.72
2023-02-11T19:58:52.066Z,46.74
2023-02-11T20:01:55.367Z,46.84
2023-02-11T20:04:58.531Z,46.93
2023-02-11T20:08:01.426Z,46.77
2023-02-11T20:11:06.931Z,47.42
2023-02-11T20:14:12.866Z,48.10
2023-02-11T20:17:16.141Z,48.40
2023-02-11T20:20:19.547Z,48.94
2023-02-11T20:23:24.368Z,49.58
2023-02-11T20:26:30.729Z,50.06
2023-02-11T20:29:36.691Z,51.44
2023-02-11T20:32:41.247Z,53.41
2023-02-11T20:35:44.178Z,54.34
2023-02-11T20:38:48.434Z,54.35
2023-02-11T20:41:53.400Z,54.83
2023-02-11T20:44:56.565Z,54.95
2023-02-11T20:47:59.773Z,56.30
2023-02-11T20:51:05.301Z,56.04
2023-02-11T20:54:12.879Z,56.68
2023-02-11T20:57:16.141Z,57.07
2023-02-11T21:00:19.545Z,56.75
2023-02-11T21:03:22.824Z,56.79
2023-02-11T21:06:30.793Z,56.73
2023-02-11T21:09:33.953Z,56.53
2023-02-11T21:12:37.254Z,56.29
2023-02-11T21:15:40.581Z,56.12
2023-02-11T21:18:44.237Z,56.48
2023-02-11T21:21:50.609Z,56.30
2023-02-11T21:24:53.730Z,56.12
2023-02-11T21:27:56.885Z,56.14
2023-02-11T21:31:00.080Z,56.14
2023-02-11T21:34:03.986Z,56.50
2023-02-11T21:37:07.243Z,56.49
2023-02-11T21:40:11.963Z,56.47
2023-02-11T21:43:15.234Z,56.76
2023-02-11T21:46:20.198Z,57.00
2023-02-11T21:49:23.364Z,57.34
2023-02-11T21:52:26.456Z,57.61
2023-02-11T21:55:29.593Z,57.81
2023-02-11T21:58:33.673Z,57.62
2023-02-11T22:01:37.317Z,57.55
2023-02-11T22:04:40.673Z,58.50
2023-02-11T22:07:43.828Z,58.64
2023-02-11T22:10:47.550Z,57.94
2023-02-11T22:13:55.630Z,58.08
2023-02-11T22:16:58.544Z,58.48
2023-02-11T22:20:01.650Z,58.37
2023-02-11T22:23:04.727Z,58.96
2023-02-11T22:26:13.097Z,59.04
2023-02-11T22:29:16.458Z,59.24
2023-02-11T22:32:19.588Z,59.01
2023-02-11T22:35:22.441Z,59.14
2023-02-11T22:38:25.735Z,59.30
2023-02-11T22:41:29.427Z,59.00
2023-02-11T22:44:32.312Z,59.24
2023-02-11T22:47:37.667Z,59.07
2023-02-11T22:50:40.899Z,59.08
2023-02-11T22:53:44.637Z,59.07
2023-02-11T22:56:51.073Z,59.55
2023-02-11T22:59:54.548Z,59.96
2023-02-11T23:02:57.524Z,60.30
2023-02-11T23:06:01.384Z,60.01
2023-02-11T23:09:08.857Z,59.80
2023-02-11T23:12:11.776Z,60.10
2023-02-11T23:15:14.650Z,60.13
2023-02-11T23:18:17.537Z,60.19
2023-02-11T23:21:23.890Z,60.04
2023-02-11T23:24:26.779Z,60.50
2023-02-11T23:27:29.607Z,60.42
2023-02-11T23:30:32.503Z,60.98
2023-02-11T23:33:35.418Z,61.20
2023-02-11T23:36:38.386Z,61.35
2023-02-11T23:39:42.210Z,60.97
2023-02-11T23:42:45.902Z,61.25
2023-02-11T23:45:49.056Z,61.59
2023-02-11T23:48:52.594Z,61.71
2023-02-11T23:51:55.641Z,62.36
2023-02-11T23:54:58.556Z,62.23
2023-02-11T23:58:01.439Z,62.46
